Time;durP1;ratioP1;P1;durP2;ratioP2;P2;SDS_P1;SDS_P2;PMS_P1;PMS_P2;Temp;Humidity;BMP_temperature;BMP_pressure;BME280_temperature;BME280_humidity;BME280_pressure;Samples;Min_cycle;Max_cycle;Signal;HPM_P1;HPM_P2
2021/06/27 00:04:14;;;;;;;13.80;10.95;;;;;;;;;;10176226;28;20554;-71
2021/06/27 00:09:27;;;;;;;14.05;11.63;;;;;;;;;;10181892;28;20045;-71
2021/06/27 00:14:28;;;;;;;15.20;11.10;;;;;;;;;;10175270;28;20054;-73
2021/06/27 00:19:24;;;;;;;14.65;12.57;;;;;;;;;;10184125;28;20108;-71
2021/06/27 00:24:21;;;;;;;17.15;12.80;;;;;;;;;;10191192;28;20408;-70
2021/06/27 00:29:17;;;;;;;15.35;12.48;;;;;;;;;;10188756;28;20643;-70
2021/06/27 00:34:13;;;;;;;14.98;12.68;;;;;;;;;;10182601;28;20397;-70
2021/06/27 00:39:09;;;;;;;14.90;13.05;;;;;;;;;;10186987;28;20142;-70
2021/06/27 00:44:06;;;;;;;15.75;13.57;;;;;;;;;;10183734;28;20093;-72
2021/06/27 00:49:02;;;;;;;16.65;12.52;;;;;;;;;;10181686;28;20073;-70
2021/06/27 00:53:59;;;;;;;14.15;12.50;;;;;;;;;;10184639;28;20046;-70
2021/06/27 00:58:58;;;;;;;15.43;13.48;;;;;;;;;;10185685;28;20520;-72
2021/06/27 01:03:55;;;;;;;16.15;12.55;;;;;;;;;;10179266;28;20120;-69
2021/06/27 01:08:57;;;;;;;16.35;13.00;;;;;;;;;;10182877;28;20112;-71
2021/06/27 01:13:59;;;;;;;17.38;13.25;;;;;;;;;;10179987;28;20053;-71
2021/06/27 01:18:56;;;;;;;15.25;12.73;;;;;;;;;;10170721;28;20649;-70
2021/06/27 01:23:53;;;;;;;19.30;13.20;;;;;;;;;;10195106;28;20133;-72
2021/06/27 01:28:49;;;;;;;15.98;13.88;;;;;;;;;;10181142;28;20137;-70
2021/06/27 01:33:48;;;;;;;19.00;14.27;;;;;;;;;;10179193;28;20156;-70
2021/06/27 01:38:45;;;;;;;15.63;12.75;;;;;;;;;;10175060;28;20141;-70
2021/06/27 01:43:41;;;;;;;16.73;13.82;;;;;;;;;;10186688;28;20392;-71
2021/06/27 01:48:38;;;;;;;16.73;12.82;;;;;;;;;;10184431;28;20424;-71
2021/06/27 01:53:36;;;;;;;19.10;14.98;;;;;;;;;;10188089;28;20543;-71
2021/06/27 01:58:38;;;;;;;17.90;15.13;;;;;;;;;;10175966;28;20139;-71
2021/06/27 02:03:54;;;;;;;18.05;14.02;;;;;;;;;;10174868;28;20512;-73
2021/06/27 02:09:17;;;;;;;20.97;16.03;;;;;;;;;;10188397;28;20038;-71
2021/06/27 02:14:59;;;;;;;;;;;;;;;;;;;;;
2021/06/27 02:20:23;;;;;;;20.13;16.10;;;;;;;;;;10186702;28;20061;-72
2021/06/27 02:26:25;;;;;;;18.98;15.98;;;;;;;;;;10172607;28;20464;-72
2021/06/27 02:31:59;;;;;;;20.60;15.25;;;;;;;;;;10185018;28;20050;-69
2021/06/27 02:36:55;;;;;;;20.25;16.42;;;;;;;;;;10192068;28;20072;-69
2021/06/27 02:41:52;;;;;;;20.10;16.25;;;;;;;;;;10184741;28;20085;-70
2021/06/27 02:46:48;;;;;;;19.40;15.63;;;;;;;;;;10186557;28;20062;-70
2021/06/27 02:51:44;;;;;;;19.10;14.43;;;;;;;;;;10187464;28;20045;-71
2021/06/27 02:56:41;;;;;;;18.05;15.07;;;;;;;;;;10184494;28;20138;-70
2021/06/27 03:01:37;;;;;;;19.40;14.75;;;;;;;;;;10188830;28;20214;-69
2021/06/27 03:06:33;;;;;;;18.77;15.43;;;;;;;;;;10182416;28;20464;-70
2021/06/27 03:11:30;;;;;;;19.77;13.93;;;;;;;;;;10186647;28;20050;-70
2021/06/27 03:16:26;;;;;;;20.50;15.88;;;;;;;;;;10172939;28;20059;-72
2021/06/27 03:21:22;;;;;;;18.35;14.93;;;;;;;;;;10196200;28;20061;-71
2021/06/27 03:26:19;;;;;;;17.73;14.32;;;;;;;;;;10186902;28;20048;-70
2021/06/27 03:31:16;;;;;;;16.35;13.18;;;;;;;;;;10184961;28;20732;-71
2021/06/27 03:36:12;;;;;;;17.17;13.95;;;;;;;;;;10189420;28;20583;-72
2021/06/27 03:41:09;;;;;;;17.48;13.60;;;;;;;;;;10183900;28;20045;-72
2021/06/27 03:46:05;;;;;;;17.90;14.02;;;;;;;;;;10192213;28;20074;-73
2021/06/27 03:51:02;;;;;;;16.25;13.63;;;;;;;;;;10188536;28;20045;-73
2021/06/27 03:55:58;;;;;;;18.05;14.05;;;;;;;;;;10183943;28;20078;-72
2021/06/27 04:00:54;;;;;;;17.27;15.07;;;;;;;;;;10177923;28;20079;-70
2021/06/27 04:05:51;;;;;;;17.58;14.30;;;;;;;;;;10178504;28;20075;-70
2021/06/27 04:10:47;;;;;;;17.58;14.73;;;;;;;;;;10195628;28;20084;-71
2021/06/27 04:15:45;;;;;;;16.90;14.50;;;;;;;;;;10181916;28;20049;-71
2021/06/27 04:20:41;;;;;;;16.95;13.48;;;;;;;;;;10199207;28;20611;-71
2021/06/27 04:25:38;;;;;;;14.40;12.50;;;;;;;;;;10195819;28;20093;-71
2021/06/27 04:30:35;;;;;;;18.30;13.80;;;;;;;;;;10188309;28;20400;-71
2021/06/27 04:35:34;;;;;;;20.95;15.05;;;;;;;;;;10187666;28;20518;-71
2021/06/27 04:40:30;;;;;;;18.15;15.48;;;;;;;;;;10189941;28;20519;-71
2021/06/27 04:45:27;;;;;;;18.75;14.88;;;;;;;;;;10179042;28;20423;-70
2021/06/27 04:50:24;;;;;;;19.58;14.57;;;;;;;;;;10182922;28;20112;-70
2021/06/27 04:55:20;;;;;;;24.02;16.40;;;;;;;;;;10195239;28;20582;-71
2021/06/27 05:00:17;;;;;;;18.38;15.65;;;;;;;;;;10181614;28;20096;-71
2021/06/27 05:05:13;;;;;;;19.23;15.48;;;;;;;;;;10198583;28;20046;-71
2021/06/27 05:10:10;;;;;;;20.40;16.08;;;;;;;;;;10194303;28;20112;-71
2021/06/27 05:15:06;;;;;;;22.60;16.27;;;;;;;;;;10183796;28;20081;-69
2021/06/27 05:20:03;;;;;;;18.38;15.30;;;;;;;;;;10190512;28;20050;-72
2021/06/27 05:24:59;;;;;;;19.98;15.40;;;;;;;;;;10189629;28;20100;-73
2021/06/27 05:29:56;;;;;;;19.25;15.95;;;;;;;;;;10179347;28;20496;-72
2021/06/27 05:34:52;;;;;;;22.23;17.30;;;;;;;;;;10183171;28;20124;-73
2021/06/27 05:39:50;;;;;;;20.08;16.25;;;;;;;;;;10183054;28;20112;-72
2021/06/27 05:44:54;;;;;;;18.67;16.27;;;;;;;;;;10171122;28;20112;-73
2021/06/27 05:49:50;;;;;;;20.88;15.73;;;;;;;;;;10190771;28;20073;-73
2021/06/27 05:54:46;;;;;;;23.92;18.40;;;;;;;;;;10192660;28;20148;-73
2021/06/27 05:59:43;;;;;;;23.80;17.38;;;;;;;;;;10178693;28;20042;-72
2021/06/27 06:04:39;;;;;;;20.90;16.85;;;;;;;;;;10192694;28;20144;-73
2021/06/27 06:09:36;;;;;;;22.25;18.58;;;;;;;;;;10188040;28;20046;-73
2021/06/27 06:14:32;;;;;;;20.88;17.58;;;;;;;;;;10190616;28;20166;-73
2021/06/27 06:19:29;;;;;;;21.40;18.73;;;;;;;;;;10200914;28;20054;-69
2021/06/27 06:24:25;;;;;;;20.67;17.95;;;;;;;;;;10196668;28;20042;-69
2021/06/27 06:29:21;;;;;;;23.25;18.13;;;;;;;;;;10191743;28;20486;-69
2021/06/27 06:34:18;;;;;;;20.35;16.92;;;;;;;;;;10192159;28;20069;-69
2021/06/27 06:39:14;;;;;;;20.75;17.05;;;;;;;;;;10198008;28;20081;-71
2021/06/27 06:44:10;;;;;;;20.13;16.08;;;;;;;;;;10196231;28;20674;-71
2021/06/27 06:49:07;;;;;;;20.73;15.63;;;;;;;;;;10191814;28;20054;-72
2021/06/27 06:54:03;;;;;;;21.05;15.63;;;;;;;;;;10198428;28;20046;-71
2021/06/27 06:59:00;;;;;;;20.60;15.13;;;;;;;;;;10191903;28;20041;-71
2021/06/27 07:03:56;;;;;;;17.15;12.98;;;;;;;;;;10194730;28;20740;-70
2021/06/27 07:08:52;;;;;;;17.48;14.45;;;;;;;;;;10185157;28;20474;-70
2021/06/27 07:13:48;;;;;;;18.25;14.48;;;;;;;;;;10192856;28;20139;-73
2021/06/27 07:18:45;;;;;;;17.30;13.80;;;;;;;;;;10190337;28;20046;-69
2021/06/27 07:23:41;;;;;;;15.50;12.23;;;;;;;;;;10187287;28;20133;-70
2021/06/27 07:28:37;;;;;;;15.07;12.30;;;;;;;;;;10194511;28;20076;-69
2021/06/27 07:33:34;;;;;;;16.88;11.98;;;;;;;;;;10197382;28;20053;-73
2021/06/27 07:38:30;;;;;;;13.80;11.88;;;;;;;;;;10187987;28;20045;-71
2021/06/27 07:43:27;;;;;;;12.02;10.73;;;;;;;;;;10174951;28;20070;-69
2021/06/27 07:48:23;;;;;;;17.73;13.02;;;;;;;;;;10180868;28;20038;-72
2021/06/27 07:53:19;;;;;;;16.35;13.15;;;;;;;;;;10182306;28;20073;-71
2021/06/27 07:58:16;;;;;;;16.02;12.30;;;;;;;;;;10191663;28;20046;-70
2021/06/27 08:03:12;;;;;;;15.63;13.00;;;;;;;;;;10188397;28;20136;-70
2021/06/27 08:08:08;;;;;;;15.73;12.15;;;;;;;;;;10191650;28;20065;-69
2021/06/27 08:13:05;;;;;;;17.00;12.90;;;;;;;;;;10188558;28;20092;-70
2021/06/27 08:18:01;;;;;;;16.60;14.23;;;;;;;;;;10185886;28;20049;-69
2021/06/27 08:22:58;;;;;;;16.25;14.18;;;;;;;;;;10186239;28;20038;-73
2021/06/27 08:27:54;;;;;;;16.10;12.85;;;;;;;;;;10191096;28;20046;-70
2021/06/27 08:33:08;;;;;;;15.15;12.48;;;;;;;;;;10176380;28;20125;-73
2021/06/27 08:38:05;;;;;;;16.13;13.27;;;;;;;;;;10172236;28;20052;-72
2021/06/27 08:43:12;;;;;;;15.35;12.02;;;;;;;;;;10183552;28;20050;-67
2021/06/27 08:48:08;;;;;;;15.63;11.18;;;;;;;;;;10203242;28;20042;-69
2021/06/27 08:53:06;;;;;;;15.27;12.43;;;;;;;;;;10174002;28;20100;-67
2021/06/27 08:58:02;;;;;;;16.23;12.10;;;;;;;;;;10180212;28;20042;-69
2021/06/27 09:02:58;;;;;;;16.80;11.93;;;;;;;;;;10167157;28;20076;-66
2021/06/27 09:08:11;;;;;;;14.25;11.18;;;;;;;;;;10176333;28;20129;-66
2021/06/27 09:13:08;;;;;;;14.38;12.02;;;;;;;;;;10168598;28;20190;-69
2021/06/27 09:18:13;;;;;;;13.40;11.02;;;;;;;;;;10182518;28;20077;-67
2021/06/27 09:23:10;;;;;;;16.23;11.73;;;;;;;;;;10170572;28;20073;-66
2021/06/27 09:28:08;;;;;;;13.45;10.90;;;;;;;;;;10179998;28;20584;-66
2021/06/27 09:33:08;;;;;;;16.80;12.98;;;;;;;;;;10166441;28;20061;-67
2021/06/27 09:38:20;;;;;;;15.75;11.50;;;;;;;;;;10174003;28;20128;-67
2021/06/27 09:43:17;;;;;;;19.08;11.98;;;;;;;;;;10173255;28;20077;-67
2021/06/27 09:48:13;;;;;;;13.77;10.48;;;;;;;;;;10169574;28;20088;-68
2021/06/27 09:53:28;;;;;;;14.65;12.20;;;;;;;;;;10168108;28;20501;-68
2021/06/27 09:58:25;;;;;;;13.40;10.75;;;;;;;;;;10171219;28;20138;-70
2021/06/27 10:03:22;;;;;;;14.00;11.18;;;;;;;;;;10168357;28;20573;-68
2021/06/27 10:08:29;;;;;;;11.23;9.18;;;;;;;;;;10176809;28;20062;-66
2021/06/27 10:13:25;;;;;;;12.35;9.38;;;;;;;;;;10170281;28;20042;-67
2021/06/27 10:18:21;;;;;;;12.73;9.38;;;;;;;;;;10171530;28;20046;-67
2021/06/27 10:23:19;;;;;;;12.23;8.60;;;;;;;;;;10170699;28;20077;-67
2021/06/27 10:28:17;;;;;;;11.27;7.60;;;;;;;;;;10176509;28;20551;-66
2021/06/27 10:33:13;;;;;;;10.57;7.63;;;;;;;;;;10168766;28;20085;-66
2021/06/27 10:38:09;;;;;;;11.88;7.55;;;;;;;;;;10181638;28;20100;-66
2021/06/27 10:43:06;;;;;;;8.07;6.38;;;;;;;;;;10175052;28;20092;-66
2021/06/27 10:48:22;;;;;;;8.82;6.47;;;;;;;;;;10172974;28;20096;-67
2021/06/27 10:53:18;;;;;;;11.48;8.77;;;;;;;;;;10175610;28;21276;-67
2021/06/27 10:58:15;;;;;;;8.48;5.57;;;;;;;;;;10178331;28;20105;-66
2021/06/27 11:03:27;;;;;;;9.57;5.88;;;;;;;;;;10167755;28;20101;-69
2021/06/27 11:08:31;;;;;;;8.80;5.65;;;;;;;;;;10178175;28;20704;-66
2021/06/27 11:13:27;;;;;;;7.63;6.10;;;;;;;;;;10170537;28;20069;-66
2021/06/27 11:18:43;;;;;;;8.50;5.82;;;;;;;;;;10168470;28;20177;-66
2021/06/27 11:23:43;;;;;;;7.25;4.80;;;;;;;;;;10167426;28;20104;-68
2021/06/27 11:28:39;;;;;;;5.88;4.18;;;;;;;;;;10169553;28;20077;-69
2021/06/27 11:33:35;;;;;;;6.13;3.75;;;;;;;;;;10166835;28;20050;-66
2021/06/27 11:38:34;;;;;;;6.10;3.25;;;;;;;;;;10171507;28;20127;-66
2021/06/27 11:43:49;;;;;;;5.63;3.58;;;;;;;;;;10167970;28;20137;-69
2021/06/27 11:48:46;;;;;;;6.03;3.78;;;;;;;;;;10174187;28;20104;-65
2021/06/27 11:53:42;;;;;;;6.30;4.53;;;;;;;;;;10177171;28;20520;-66
2021/06/27 11:58:38;;;;;;;6.15;3.92;;;;;;;;;;10169293;28;20037;-67
2021/06/27 12:03:44;;;;;;;5.80;3.80;;;;;;;;;;10168632;28;20046;-66
2021/06/27 12:08:44;;;;;;;6.47;3.72;;;;;;;;;;10172756;28;20092;-67
2021/06/27 12:13:40;;;;;;;5.38;4.10;;;;;;;;;;10167098;28;20104;-67
2021/06/27 12:18:37;;;;;;;5.90;3.75;;;;;;;;;;10175942;28;20685;-67
2021/06/27 12:23:38;;;;;;;7.03;4.95;;;;;;;;;;10161559;28;20567;-67
2021/06/27 12:28:41;;;;;;;12.93;8.57;;;;;;;;;;10164917;28;20073;-67
2021/06/27 12:33:39;;;;;;;6.45;4.28;;;;;;;;;;10164532;28;20182;-66
2021/06/27 12:38:37;;;;;;;5.88;4.05;;;;;;;;;;10180272;28;20046;-70
2021/06/27 12:43:36;;;;;;;6.82;3.75;;;;;;;;;;10179148;28;20165;-67
2021/06/27 12:48:43;;;;;;;7.88;4.78;;;;;;;;;;10198887;28;20053;-68
2021/06/27 12:53:39;;;;;;;6.85;3.85;;;;;;;;;;10181373;28;20054;-68
2021/06/27 12:58:55;;;;;;;6.45;3.70;;;;;;;;;;10192835;28;20100;-67
2021/06/27 13:03:58;;;;;;;7.00;4.35;;;;;;;;;;10180699;28;20133;-67
2021/06/27 13:09:14;;;;;;;5.63;4.10;;;;;;;;;;10175447;28;20073;-67
2021/06/27 13:14:23;;;;;;;5.85;3.35;;;;;;;;;;10176019;28;20080;-66
2021/06/27 13:19:19;;;;;;;9.48;4.20;;;;;;;;;;10170863;28;20049;-71
2021/06/27 13:24:22;;;;;;;5.93;4.00;;;;;;;;;;10178487;28;20092;-67
2021/06/27 13:29:20;;;;;;;5.53;3.53;;;;;;;;;;10174529;28;20116;-66
2021/06/27 13:34:30;;;;;;;5.13;3.72;;;;;;;;;;10171534;28;20081;-67
2021/06/27 13:39:26;;;;;;;6.15;3.95;;;;;;;;;;10180576;28;20076;-67
2021/06/27 13:44:23;;;;;;;6.75;3.58;;;;;;;;;;10177557;28;20583;-67
2021/06/27 13:49:19;;;;;;;8.18;3.60;;;;;;;;;;10198533;28;20491;-66
2021/06/27 13:54:15;;;;;;;6.07;3.15;;;;;;;;;;10186579;28;20790;-68
2021/06/27 13:59:12;;;;;;;5.38;3.85;;;;;;;;;;10178878;28;20180;-66
2021/06/27 14:04:08;;;;;;;4.85;3.05;;;;;;;;;;10201283;28;20065;-66
2021/06/27 14:09:04;;;;;;;5.10;2.90;;;;;;;;;;10183887;28;20068;-72
2021/06/27 14:14:01;;;;;;;5.15;2.85;;;;;;;;;;10177459;28;20062;-68
2021/06/27 14:18:57;;;;;;;8.57;5.43;;;;;;;;;;10178836;28;20054;-73
2021/06/27 14:23:54;;;;;;;6.40;3.20;;;;;;;;;;10180482;28;20603;-67
2021/06/27 14:28:50;;;;;;;4.93;2.70;;;;;;;;;;10187991;28;20054;-67
2021/06/27 14:33:46;;;;;;;5.22;2.75;;;;;;;;;;10175676;28;20101;-66
2021/06/27 14:38:43;;;;;;;5.38;3.10;;;;;;;;;;10180333;28;20089;-66
2021/06/27 14:43:39;;;;;;;5.28;2.45;;;;;;;;;;10203541;28;20550;-67
2021/06/27 14:48:35;;;;;;;4.03;2.42;;;;;;;;;;10178749;28;20058;-66
2021/06/27 14:53:32;;;;;;;4.13;2.45;;;;;;;;;;10173467;28;20088;-66
2021/06/27 14:58:28;;;;;;;4.93;2.30;;;;;;;;;;10182497;28;20046;-67
2021/06/27 15:03:25;;;;;;;9.20;4.57;;;;;;;;;;10178026;28;20045;-67
2021/06/27 15:08:21;;;;;;;4.30;2.67;;;;;;;;;;10175327;28;20046;-67
2021/06/27 15:13:17;;;;;;;4.97;2.65;;;;;;;;;;10179059;28;20111;-68
2021/06/27 15:18:14;;;;;;;4.53;2.33;;;;;;;;;;10177439;28;20042;-67
2021/06/27 15:23:11;;;;;;;3.85;2.28;;;;;;;;;;10187590;28;20042;-66
2021/06/27 15:28:07;;;;;;;7.40;2.40;;;;;;;;;;10177105;28;20077;-68
2021/06/27 15:33:04;;;;;;;7.00;3.30;;;;;;;;;;10160908;28;20159;-69
2021/06/27 15:38:00;;;;;;;5.20;2.60;;;;;;;;;;10173402;28;20050;-68
2021/06/27 15:42:56;;;;;;;4.53;2.60;;;;;;;;;;10176528;28;20145;-67
2021/06/27 15:47:55;;;;;;;6.32;2.60;;;;;;;;;;10184959;28;20427;-67
2021/06/27 15:52:51;;;;;;;4.53;2.70;;;;;;;;;;10172918;28;20058;-67
2021/06/27 15:57:48;;;;;;;4.25;2.22;;;;;;;;;;10172355;28;20046;-67
2021/06/27 16:02:45;;;;;;;3.95;2.50;;;;;;;;;;10193968;28;20195;-66
2021/06/27 16:07:41;;;;;;;3.33;1.92;;;;;;;;;;10198536;28;20419;-66
2021/06/27 16:12:38;;;;;;;3.30;1.95;;;;;;;;;;10188764;28;20045;-68
2021/06/27 16:17:34;;;;;;;3.50;2.13;;;;;;;;;;10204648;28;20053;-67
2021/06/27 16:22:31;;;;;;;7.07;2.28;;;;;;;;;;10197180;28;20520;-66
2021/06/27 16:27:28;;;;;;;3.22;1.80;;;;;;;;;;10178491;28;20669;-67
2021/06/27 16:32:25;;;;;;;3.97;2.13;;;;;;;;;;10178813;28;20073;-67
2021/06/27 16:37:21;;;;;;;4.15;2.20;;;;;;;;;;10176609;28;20057;-66
2021/06/27 16:42:17;;;;;;;3.60;2.40;;;;;;;;;;10182231;28;20050;-67
2021/06/27 16:47:14;;;;;;;3.30;2.08;;;;;;;;;;10182359;28;20697;-67
2021/06/27 16:52:10;;;;;;;3.30;1.70;;;;;;;;;;10182770;28;20137;-68
2021/06/27 16:57:07;;;;;;;4.25;1.92;;;;;;;;;;10193100;28;20504;-68
2021/06/27 17:02:03;;;;;;;5.07;2.92;;;;;;;;;;10185607;28;20610;-66
2021/06/27 17:07:19;;;;;;;4.15;2.58;;;;;;;;;;10185832;28;20083;-66
2021/06/27 17:12:17;;;;;;;3.20;1.80;;;;;;;;;;10196976;28;20042;-66
2021/06/27 17:17:14;;;;;;;16.92;9.85;;;;;;;;;;10170066;28;20137;-67
2021/06/27 17:22:11;;;;;;;13.60;10.52;;;;;;;;;;10168063;28;20085;-65
2021/06/27 17:27:08;;;;;;;20.08;14.50;;;;;;;;;;10175352;28;20054;-70
2021/06/27 17:32:07;;;;;;;3.42;1.80;;;;;;;;;;10185809;28;20125;-66
2021/06/27 17:37:07;;;;;;;3.47;2.13;;;;;;;;;;10179335;28;20050;-66
2021/06/27 17:42:04;;;;;;;3.45;1.75;;;;;;;;;;10182862;28;20077;-65
2021/06/27 17:47:02;;;;;;;4.18;1.83;;;;;;;;;;10176501;28;20053;-67
2021/06/27 17:51:58;;;;;;;3.28;1.70;;;;;;;;;;10175824;28;20524;-66
2021/06/27 17:56:55;;;;;;;3.60;1.95;;;;;;;;;;10162974;28;20101;-68
2021/06/27 18:01:51;;;;;;;3.35;1.88;;;;;;;;;;10173425;28;20168;-67
2021/06/27 18:06:48;;;;;;;5.85;2.10;;;;;;;;;;10177314;28;20437;-67
2021/06/27 18:11:44;;;;;;;3.55;2.22;;;;;;;;;;10181077;28;20527;-66
2021/06/27 18:16:41;;;;;;;3.83;2.28;;;;;;;;;;10184662;28;20500;-66
2021/06/27 18:21:38;;;;;;;4.32;2.80;;;;;;;;;;10173772;28;20127;-66
2021/06/27 18:26:34;;;;;;;6.00;2.53;;;;;;;;;;10180966;28;20069;-67
2021/06/27 18:31:31;;;;;;;4.32;2.60;;;;;;;;;;10185127;28;20081;-69
2021/06/27 18:36:27;;;;;;;6.53;2.15;;;;;;;;;;10176028;28;20133;-66
2021/06/27 18:41:27;;;;;;;3.95;2.55;;;;;;;;;;10169833;28;20050;-66
2021/06/27 18:46:23;;;;;;;4.03;2.47;;;;;;;;;;10181616;28;20567;-67
2021/06/27 18:51:20;;;;;;;4.70;3.50;;;;;;;;;;10186408;28;20058;-68
2021/06/27 18:56:16;;;;;;;4.07;2.35;;;;;;;;;;10179592;28;20473;-68
2021/06/27 19:01:12;;;;;;;3.83;2.28;;;;;;;;;;10183139;28;20077;-67
2021/06/27 19:06:09;;;;;;;3.40;1.73;;;;;;;;;;10179067;28;20054;-67
2021/06/27 19:11:06;;;;;;;3.88;2.40;;;;;;;;;;10188238;28;20424;-67
2021/06/27 19:16:02;;;;;;;3.70;2.40;;;;;;;;;;10179133;28;20073;-64
2021/06/27 19:20:59;;;;;;;3.92;2.50;;;;;;;;;;10171848;28;20520;-66
2021/06/27 19:25:56;;;;;;;6.60;3.38;;;;;;;;;;10166056;28;20088;-65
2021/06/27 19:30:53;;;;;;;3.63;1.98;;;;;;;;;;10172512;28;20217;-66
2021/06/27 19:35:49;;;;;;;5.97;2.88;;;;;;;;;;10167693;28;20101;-66
2021/06/27 19:40:46;;;;;;;3.90;2.40;;;;;;;;;;10166211;28;20074;-65
2021/06/27 19:51:04;;;;;;;4.90;3.10;;;;;;;24.88;46.83;101557.59;10306861;27;20662;-67
2021/06/27 19:56:03;;;;;;;4.43;2.70;;;;;;;24.76;47.78;101557.94;10279941;28;20539;-73
2021/06/27 20:01:00;;;;;;;4.15;2.88;;;;;;;24.59;47.55;101555.91;10249296;28;20079;-68
2021/06/27 20:05:57;;;;;;;4.65;2.90;;;;;;;24.45;47.67;101551.81;10237692;28;20060;-69
2021/06/27 20:10:53;;;;;;;5.70;3.65;;;;;;;24.44;48.19;101558.63;10241360;28;20069;-69
2021/06/27 20:15:53;;;;;;;5.55;3.42;;;;;;;24.31;49.00;101571.31;10244168;28;20084;-69
2021/06/27 20:20:52;;;;;;;4.80;3.20;;;;;;;24.19;48.95;101571.66;10239044;28;20145;-68
2021/06/27 20:25:49;;;;;;;4.82;2.95;;;;;;;24.03;49.73;101569.97;10240911;28;20038;-68
2021/06/27 20:30:46;;;;;;;4.68;3.10;;;;;;;23.95;49.91;101562.75;10247599;28;20079;-67
2021/06/27 20:35:42;;;;;;;4.82;3.50;;;;;;;23.86;50.76;101565.09;10236140;28;20045;-69
2021/06/27 20:40:40;;;;;;;4.10;3.03;;;;;;;23.71;50.99;101564.16;10229558;28;20527;-69
2021/06/27 20:45:38;;;;;;;6.03;3.70;;;;;;;23.58;51.41;101566.47;10234466;28;20045;-69
2021/06/27 20:50:35;;;;;;;5.90;3.53;;;;;;;23.46;51.22;101570.34;10244158;28;20163;-68
2021/06/27 20:55:34;;;;;;;5.50;3.97;;;;;;;23.38;51.36;101570.66;10245397;28;20045;-68
2021/06/27 21:00:31;;;;;;;5.45;3.83;;;;;;;23.29;51.26;101566.19;10224567;28;20065;-68
2021/06/27 21:05:28;;;;;;;5.07;3.75;;;;;;;23.14;51.59;101567.28;10218391;28;20503;-69
2021/06/27 21:10:25;;;;;;;5.60;3.92;;;;;;;23.01;52.29;101571.50;10222858;28;20049;-68
2021/06/27 21:15:21;;;;;;;5.78;3.25;;;;;;;22.89;52.41;101567.78;10228591;28;20045;-67
2021/06/27 21:20:18;;;;;;;4.78;3.38;;;;;;;22.68;53.71;101564.75;10216208;28;20045;-68
2021/06/27 21:25:32;;;;;;;5.55;2.95;;;;;;;22.64;52.68;101575.06;10220284;28;20552;-67
2021/06/27 21:30:29;;;;;;;5.10;2.90;;;;;;;22.59;53.61;101570.63;10229134;28;20052;-67
2021/06/27 21:35:26;;;;;;;5.65;3.10;;;;;;;22.53;53.45;101562.97;10220173;28;20045;-67
2021/06/27 21:40:23;;;;;;;7.45;2.95;;;;;;;22.42;54.16;101569.22;10218010;28;20045;-68
2021/06/27 21:45:21;;;;;;;4.32;2.90;;;;;;;22.35;54.09;101569.13;10253155;28;20045;-69
2021/06/27 21:50:19;;;;;;;4.60;3.03;;;;;;;22.32;54.26;101569.88;10257902;28;20133;-68
2021/06/27 21:55:16;;;;;;;4.18;2.92;;;;;;;22.27;54.55;101573.00;10254361;28;20520;-68
2021/06/27 22:00:21;;;;;;;4.30;3.20;;;;;;;22.23;54.97;101561.00;10256416;28;20050;-68
2021/06/27 22:05:19;;;;;;;4.65;3.20;;;;;;;22.15;55.72;101564.84;10257161;28;20474;-67
2021/06/27 22:15:27;;;;;;;4.75;3.60;;;;;;;22.03;57.16;101575.03;7548173;22;20065;-68
2021/06/27 22:20:24;;;;;;;5.25;3.05;;;;;;;21.93;57.44;101570.13;10227114;28;20419;-67
2021/06/27 22:25:20;;;;;;;5.60;3.90;;;;;;;21.81;57.97;101567.53;10241223;28;20102;-67
2021/06/27 22:30:17;;;;;;;6.30;3.83;;;;;;;21.74;58.57;101567.41;10245458;28;20132;-69
2021/06/27 22:35:15;;;;;;;5.07;3.72;;;;;;;21.67;58.96;101558.97;10242786;28;20076;-68
2021/06/27 22:40:13;;;;;;;5.05;4.10;;;;;;;21.62;59.33;101566.44;10238349;28;20463;-69
2021/06/27 22:45:11;;;;;;;4.80;3.70;;;;;;;21.57;59.93;101566.75;10243928;28;20049;-69
2021/06/27 22:50:10;;;;;;;6.82;4.40;;;;;;;21.47;59.96;101563.78;10230521;28;20045;-68
2021/06/27 22:55:08;;;;;;;7.55;3.85;;;;;;;21.42;60.76;101562.13;10246423;28;20045;-69
2021/06/27 23:00:16;;;;;;;5.43;4.18;;;;;;;21.31;60.55;101550.00;10245512;28;20131;-68
2021/06/27 23:05:13;;;;;;;5.32;3.67;;;;;;;21.25;61.20;101559.81;10246909;28;20049;-69
2021/06/27 23:10:13;;;;;;;6.63;4.53;;;;;;;21.17;61.47;101556.94;10242701;28;20072;-68
2021/06/27 23:15:12;;;;;;;6.78;4.55;;;;;;;21.11;61.79;101558.41;10233667;28;20095;-68
2021/06/27 23:20:13;;;;;;;7.60;5.28;;;;;;;21.07;62.30;101551.16;10232144;28;20041;-68
2021/06/27 23:25:10;;;;;;;8.82;4.50;;;;;;;20.99;62.79;101556.59;10239945;28;20458;-68
2021/06/27 23:30:08;;;;;;;6.40;4.68;;;;;;;20.93;62.76;101551.69;10246282;28;20133;-68
2021/06/27 23:35:05;;;;;;;6.95;4.82;;;;;;;20.86;63.41;101557.13;10234446;28;20045;-70
2021/06/27 23:40:02;;;;;;;7.75;4.70;;;;;;;20.78;63.82;101545.88;10238976;28;20076;-68
2021/06/27 23:44:59;;;;;;;7.40;4.93;;;;;;;20.69;64.07;101542.53;10233398;28;20122;-69
2021/06/27 23:49:56;;;;;;;7.88;5.10;;;;;;;20.64;64.29;101548.38;10233380;28;20041;-69
2021/06/27 23:54:52;;;;;;;7.53;5.50;;;;;;;20.58;64.76;101535.94;10222206;28;20095;-69
2021/06/27 23:59:49;;;;;;;8.95;5.50;;;;;;;20.49;65.23;101538.94;10224674;28;20720;-69
